sensor_id;sensor_type;location;lat;lon;timestamp;P1;durP1;ratioP1;P2;durP2;ratioP2
22490;SDS011;11412;50.802;4.350;2023-03-08T00:01:45;13.15;;;10.93;;
22490;SDS011;11412;50.802;4.350;2023-03-08T00:04:11;12.32;;;10.50;;
22490;SDS011;11412;50.802;4.350;2023-03-08T00:06:37;11.90;;;10.07;;
22490;SDS011;11412;50.802;4.350;2023-03-08T00:09:02;13.45;;;10.60;;
22490;SDS011;11412;50.802;4.350;2023-03-08T00:11:28;12.80;;;9.95;;
22490;SDS011;11412;50.802;4.350;2023-03-08T00:13:54;13.27;;;11.48;;
22490;SDS011;11412;50.802;4.350;2023-03-08T00:16:20;11.32;;;9.80;;
22490;SDS011;11412;50.802;4.350;2023-03-08T00:18:46;12.23;;;9.73;;
22490;SDS011;11412;50.802;4.350;2023-03-08T00:21:15;14.15;;;9.52;;
22490;SDS011;11412;50.802;4.350;2023-03-08T00:23:42;12.32;;;10.70;;
22490;SDS011;11412;50.802;4.350;2023-03-08T00:26:09;12.48;;;10.35;;
22490;SDS011;11412;50.802;4.350;2023-03-08T00:28:35;12.38;;;10.63;;
22490;SDS011;11412;50.802;4.350;2023-03-08T00:31:02;12.27;;;10.18;;
22490;SDS011;11412;50.802;4.350;2023-03-08T00:33:28;13.65;;;11.05;;
22490;SDS011;11412;50.802;4.350;2023-03-08T00:36:00;12.75;;;10.43;;
22490;SDS011;11412;50.802;4.350;2023-03-08T00:38:47;15.77;;;11.20;;
22490;SDS011;11412;50.802;4.350;2023-03-08T00:41:14;11.75;;;10.52;;
22490;SDS011;11412;50.802;4.350;2023-03-08T00:43:40;13.35;;;11.00;;
22490;SDS011;11412;50.802;4.350;2023-03-08T00:46:06;14.13;;;11.38;;
22490;SDS011;11412;50.802;4.350;2023-03-08T00:48:32;13.77;;;11.18;;
22490;SDS011;11412;50.802;4.350;2023-03-08T00:50:58;13.77;;;11.38;;
22490;SDS011;11412;50.802;4.350;2023-03-08T00:53:23;13.32;;;11.52;;
22490;SDS011;11412;50.802;4.350;2023-03-08T00:55:50;11.40;;;9.95;;
22490;SDS011;11412;50.802;4.350;2023-03-08T00:58:17;14.10;;;11.75;;
22490;SDS011;11412;50.802;4.350;2023-03-08T01:00:43;14.48;;;11.60;;
22490;SDS011;11412;50.802;4.350;2023-03-08T01:03:09;12.38;;;10.30;;
22490;SDS011;11412;50.802;4.350;2023-03-08T01:05:39;12.45;;;10.98;;
22490;SDS011;11412;50.802;4.350;2023-03-08T01:08:06;13.90;;;10.82;;
22490;SDS011;11412;50.802;4.350;2023-03-08T01:10:32;12.65;;;10.48;;
22490;SDS011;11412;50.802;4.350;2023-03-08T01:12:58;15.25;;;11.00;;
22490;SDS011;11412;50.802;4.350;2023-03-08T01:15:24;12.18;;;10.75;;
22490;SDS011;11412;50.802;4.350;2023-03-08T01:17:50;13.55;;;11.15;;
22490;SDS011;11412;50.802;4.350;2023-03-08T01:20:15;13.60;;;11.10;;
22490;SDS011;11412;50.802;4.350;2023-03-08T01:22:41;13.93;;;10.35;;
22490;SDS011;11412;50.802;4.350;2023-03-08T01:25:07;13.50;;;10.15;;
22490;SDS011;11412;50.802;4.350;2023-03-08T01:27:33;13.65;;;10.75;;
22490;SDS011;11412;50.802;4.350;2023-03-08T01:29:59;11.80;;;10.48;;
22490;SDS011;11412;50.802;4.350;2023-03-08T01:32:24;13.82;;;11.13;;
22490;SDS011;11412;50.802;4.350;2023-03-08T01:34:50;11.88;;;10.35;;
22490;SDS011;11412;50.802;4.350;2023-03-08T01:37:16;14.30;;;11.05;;
22490;SDS011;11412;50.802;4.350;2023-03-08T01:39:41;11.48;;;10.27;;
22490;SDS011;11412;50.802;4.350;2023-03-08T01:42:07;12.00;;;10.13;;
22490;SDS011;11412;50.802;4.350;2023-03-08T01:44:49;12.38;;;9.65;;
22490;SDS011;11412;50.802;4.350;2023-03-08T01:47:20;12.10;;;10.30;;
22490;SDS011;11412;50.802;4.350;2023-03-08T01:49:48;12.18;;;9.93;;
22490;SDS011;11412;50.802;4.350;2023-03-08T01:52:15;12.13;;;9.63;;
22490;SDS011;11412;50.802;4.350;2023-03-08T01:54:49;13.68;;;11.05;;
22490;SDS011;11412;50.802;4.350;2023-03-08T01:57:30;11.98;;;9.93;;
22490;SDS011;11412;50.802;4.350;2023-03-08T02:00:09;11.82;;;9.95;;
22490;SDS011;11412;50.802;4.350;2023-03-08T02:02:46;12.52;;;10.25;;
22490;SDS011;11412;50.802;4.350;2023-03-08T02:05:16;12.85;;;10.43;;
22490;SDS011;11412;50.802;4.350;2023-03-08T02:07:42;12.55;;;9.93;;
22490;SDS011;11412;50.802;4.350;2023-03-08T02:10:09;11.43;;;9.73;;
22490;SDS011;11412;50.802;4.350;2023-03-08T02:12:36;11.52;;;9.35;;
22490;SDS011;11412;50.802;4.350;2023-03-08T02:15:02;11.90;;;9.13;;
22490;SDS011;11412;50.802;4.350;2023-03-08T02:17:31;11.88;;;8.88;;
22490;SDS011;11412;50.802;4.350;2023-03-08T02:20:03;10.85;;;9.10;;
22490;SDS011;11412;50.802;4.350;2023-03-08T02:22:40;9.95;;;8.57;;
22490;SDS011;11412;50.802;4.350;2023-03-08T02:25:14;11.13;;;8.85;;
22490;SDS011;11412;50.802;4.350;2023-03-08T02:27:41;9.45;;;8.25;;
22490;SDS011;11412;50.802;4.350;2023-03-08T02:30:07;9.65;;;7.85;;
22490;SDS011;11412;50.802;4.350;2023-03-08T02:32:34;10.45;;;8.32;;
22490;SDS011;11412;50.802;4.350;2023-03-08T02:35:00;9.60;;;7.75;;
22490;SDS011;11412;50.802;4.350;2023-03-08T02:37:26;9.77;;;8.15;;
22490;SDS011;11412;50.802;4.350;2023-03-08T02:39:51;10.10;;;8.55;;
22490;SDS011;11412;50.802;4.350;2023-03-08T02:42:17;11.40;;;8.60;;
22490;SDS011;11412;50.802;4.350;2023-03-08T02:44:43;9.63;;;7.93;;
22490;SDS011;11412;50.802;4.350;2023-03-08T02:47:08;9.75;;;7.53;;
22490;SDS011;11412;50.802;4.350;2023-03-08T02:49:34;9.65;;;7.55;;
22490;SDS011;11412;50.802;4.350;2023-03-08T02:52:00;10.65;;;8.68;;
22490;SDS011;11412;50.802;4.350;2023-03-08T02:54:25;11.38;;;9.23;;
22490;SDS011;11412;50.802;4.350;2023-03-08T02:56:51;11.15;;;8.25;;
22490;SDS011;11412;50.802;4.350;2023-03-08T02:59:17;11.40;;;8.93;;
22490;SDS011;11412;50.802;4.350;2023-03-08T03:01:42;11.85;;;8.88;;
22490;SDS011;11412;50.802;4.350;2023-03-08T03:04:08;10.98;;;9.18;;
22490;SDS011;11412;50.802;4.350;2023-03-08T03:06:33;10.80;;;8.80;;
22490;SDS011;11412;50.802;4.350;2023-03-08T03:08:59;11.68;;;9.18;;
22490;SDS011;11412;50.802;4.350;2023-03-08T03:11:25;12.98;;;10.02;;
22490;SDS011;11412;50.802;4.350;2023-03-08T03:13:57;11.60;;;9.30;;
22490;SDS011;11412;50.802;4.350;2023-03-08T03:16:24;10.80;;;7.85;;
22490;SDS011;11412;50.802;4.350;2023-03-08T03:18:51;10.85;;;8.13;;
22490;SDS011;11412;50.802;4.350;2023-03-08T03:21:18;7.90;;;6.97;;
22490;SDS011;11412;50.802;4.350;2023-03-08T03:23:44;9.48;;;7.00;;
22490;SDS011;11412;50.802;4.350;2023-03-08T03:26:11;8.13;;;6.68;;
22490;SDS011;11412;50.802;4.350;2023-03-08T03:28:38;7.53;;;6.35;;
22490;SDS011;11412;50.802;4.350;2023-03-08T03:31:11;7.55;;;6.25;;
22490;SDS011;11412;50.802;4.350;2023-03-08T03:33:39;6.15;;;5.50;;
22490;SDS011;11412;50.802;4.350;2023-03-08T03:36:05;5.35;;;4.82;;
22490;SDS011;11412;50.802;4.350;2023-03-08T03:38:33;5.50;;;4.68;;
22490;SDS011;11412;50.802;4.350;2023-03-08T03:41:03;5.28;;;4.53;;
22490;SDS011;11412;50.802;4.350;2023-03-08T03:43:31;4.90;;;4.40;;
22490;SDS011;11412;50.802;4.350;2023-03-08T03:45:58;4.45;;;4.05;;
22490;SDS011;11412;50.802;4.350;2023-03-08T03:48:25;4.82;;;3.75;;
22490;SDS011;11412;50.802;4.350;2023-03-08T03:50:58;3.45;;;3.15;;
22490;SDS011;11412;50.802;4.350;2023-03-08T03:53:44;4.05;;;3.70;;
22490;SDS011;11412;50.802;4.350;2023-03-08T03:56:14;3.53;;;3.22;;
22490;SDS011;11412;50.802;4.350;2023-03-08T03:58:40;2.85;;;2.60;;
22490;SDS011;11412;50.802;4.350;2023-03-08T04:01:14;3.35;;;3.08;;
22490;SDS011;11412;50.802;4.350;2023-03-08T04:03:40;3.58;;;3.05;;
22490;SDS011;11412;50.802;4.350;2023-03-08T04:06:16;3.45;;;2.95;;
22490;SDS011;11412;50.802;4.350;2023-03-08T04:08:44;2.70;;;2.50;;
22490;SDS011;11412;50.802;4.350;2023-03-08T04:11:10;2.63;;;2.42;;
22490;SDS011;11412;50.802;4.350;2023-03-08T04:13:37;2.95;;;2.75;;
22490;SDS011;11412;50.802;4.350;2023-03-08T04:16:10;2.92;;;2.72;;
22490;SDS011;11412;50.802;4.350;2023-03-08T04:18:37;3.15;;;2.88;;
22490;SDS011;11412;50.802;4.350;2023-03-08T04:21:02;3.33;;;3.03;;
22490;SDS011;11412;50.802;4.350;2023-03-08T04:23:28;3.10;;;2.90;;
22490;SDS011;11412;50.802;4.350;2023-03-08T04:25:54;3.15;;;2.85;;
22490;SDS011;11412;50.802;4.350;2023-03-08T04:28:20;3.33;;;2.78;;
22490;SDS011;11412;50.802;4.350;2023-03-08T04:30:45;2.70;;;2.50;;
22490;SDS011;11412;50.802;4.350;2023-03-08T04:33:11;3.33;;;3.03;;
22490;SDS011;11412;50.802;4.350;2023-03-08T04:35:36;3.45;;;3.15;;
22490;SDS011;11412;50.802;4.350;2023-03-08T04:38:02;3.50;;;2.92;;
22490;SDS011;11412;50.802;4.350;2023-03-08T04:40:28;3.58;;;3.28;;
22490;SDS011;11412;50.802;4.350;2023-03-08T04:42:54;3.42;;;3.10;;
22490;SDS011;11412;50.802;4.350;2023-03-08T04:45:20;3.33;;;3.05;;
22490;SDS011;11412;50.802;4.350;2023-03-08T04:47:45;3.65;;;3.35;;
22490;SDS011;11412;50.802;4.350;2023-03-08T04:50:11;4.68;;;3.30;;
22490;SDS011;11412;50.802;4.350;2023-03-08T04:52:37;3.33;;;3.13;;
22490;SDS011;11412;50.802;4.350;2023-03-08T04:55:03;3.35;;;3.15;;
22490;SDS011;11412;50.802;4.350;2023-03-08T04:57:29;3.25;;;2.90;;
22490;SDS011;11412;50.802;4.350;2023-03-08T04:59:55;3.97;;;3.67;;
22490;SDS011;11412;50.802;4.350;2023-03-08T05:02:21;3.50;;;3.30;;
22490;SDS011;11412;50.802;4.350;2023-03-08T05:04:47;3.30;;;3.10;;
22490;SDS011;11412;50.802;4.350;2023-03-08T05:07:13;3.20;;;3.00;;
22490;SDS011;11412;50.802;4.350;2023-03-08T05:09:39;3.97;;;3.67;;
22490;SDS011;11412;50.802;4.350;2023-03-08T05:12:04;3.40;;;3.13;;
22490;SDS011;11412;50.802;4.350;2023-03-08T05:14:30;3.25;;;3.05;;
22490;SDS011;11412;50.802;4.350;2023-03-08T05:16:56;2.97;;;2.67;;
22490;SDS011;11412;50.802;4.350;2023-03-08T05:19:22;2.70;;;2.58;;
22490;SDS011;11412;50.802;4.350;2023-03-08T05:21:48;3.03;;;2.83;;
22490;SDS011;11412;50.802;4.350;2023-03-08T05:24:13;3.17;;;2.97;;
22490;SDS011;11412;50.802;4.350;2023-03-08T05:26:39;2.80;;;2.60;;
22490;SDS011;11412;50.802;4.350;2023-03-08T05:29:05;2.90;;;2.70;;
22490;SDS011;11412;50.802;4.350;2023-03-08T05:31:32;2.88;;;2.67;;
22490;SDS011;11412;50.802;4.350;2023-03-08T05:33:58;3.10;;;2.80;;
22490;SDS011;11412;50.802;4.350;2023-03-08T05:36:23;2.63;;;2.50;;
22490;SDS011;11412;50.802;4.350;2023-03-08T05:38:53;2.80;;;2.60;;
22490;SDS011;11412;50.802;4.350;2023-03-08T05:41:19;2.58;;;2.47;;
22490;SDS011;11412;50.802;4.350;2023-03-08T05:43:45;3.00;;;2.80;;
22490;SDS011;11412;50.802;4.350;2023-03-08T05:46:14;2.75;;;2.65;;
22490;SDS011;11412;50.802;4.350;2023-03-08T05:48:42;2.72;;;2.63;;
22490;SDS011;11412;50.802;4.350;2023-03-08T05:51:09;3.20;;;3.00;;
22490;SDS011;11412;50.802;4.350;2023-03-08T05:53:36;2.78;;;2.58;;
22490;SDS011;11412;50.802;4.350;2023-03-08T05:56:15;3.17;;;2.97;;
22490;SDS011;11412;50.802;4.350;2023-03-08T05:58:42;3.00;;;2.80;;
22490;SDS011;11412;50.802;4.350;2023-03-08T06:01:12;3.13;;;2.83;;
22490;SDS011;11412;50.802;4.350;2023-03-08T06:03:40;2.78;;;2.58;;
22490;SDS011;11412;50.802;4.350;2023-03-08T06:06:07;3.47;;;3.20;;
22490;SDS011;11412;50.802;4.350;2023-03-08T06:08:33;2.92;;;2.72;;
22490;SDS011;11412;50.802;4.350;2023-03-08T06:10:58;2.95;;;2.75;;
22490;SDS011;11412;50.802;4.350;2023-03-08T06:13:24;2.67;;;2.58;;
22490;SDS011;11412;50.802;4.350;2023-03-08T06:15:54;3.17;;;2.97;;
22490;SDS011;11412;50.802;4.350;2023-03-08T06:18:20;3.42;;;3.22;;
22490;SDS011;11412;50.802;4.350;2023-03-08T06:21:09;3.00;;;2.80;;
22490;SDS011;11412;50.802;4.350;2023-03-08T06:23:35;2.80;;;2.60;;
22490;SDS011;11412;50.802;4.350;2023-03-08T06:26:01;3.17;;;2.97;;
22490;SDS011;11412;50.802;4.350;2023-03-08T06:28:27;3.33;;;3.13;;
22490;SDS011;11412;50.802;4.350;2023-03-08T06:30:54;3.30;;;3.13;;
22490;SDS011;11412;50.802;4.350;2023-03-08T06:33:21;3.70;;;3.40;;
22490;SDS011;11412;50.802;4.350;2023-03-08T06:35:55;3.47;;;3.28;;
22490;SDS011;11412;50.802;4.350;2023-03-08T06:38:24;3.20;;;3.00;;
22490;SDS011;11412;50.802;4.350;2023-03-08T06:40:51;3.53;;;3.33;;
22490;SDS011;11412;50.802;4.350;2023-03-08T06:43:17;3.60;;;3.35;;
22490;SDS011;11412;50.802;4.350;2023-03-08T06:45:43;3.63;;;3.33;;
22490;SDS011;11412;50.802;4.350;2023-03-08T06:48:09;2.97;;;2.80;;
22490;SDS011;11412;50.802;4.350;2023-03-08T06:50:34;3.50;;;3.20;;
22490;SDS011;11412;50.802;4.350;2023-03-08T06:53:00;3.25;;;3.05;;
22490;SDS011;11412;50.802;4.350;2023-03-08T06:55:26;3.10;;;2.90;;
22490;SDS011;11412;50.802;4.350;2023-03-08T06:57:51;3.42;;;3.22;;
22490;SDS011;11412;50.802;4.350;2023-03-08T07:00:20;3.30;;;3.00;;
22490;SDS011;11412;50.802;4.350;2023-03-08T07:02:46;3.92;;;3.60;;
22490;SDS011;11412;50.802;4.350;2023-03-08T07:05:13;3.60;;;3.40;;
22490;SDS011;11412;50.802;4.350;2023-03-08T07:07:42;4.00;;;3.70;;
22490;SDS011;11412;50.802;4.350;2023-03-08T07:10:08;4.32;;;4.03;;
22490;SDS011;11412;50.802;4.350;2023-03-08T07:12:35;4.95;;;4.45;;
22490;SDS011;11412;50.802;4.350;2023-03-08T07:15:07;4.47;;;4.18;;
22490;SDS011;11412;50.802;4.350;2023-03-08T07:17:38;4.75;;;4.35;;
22490;SDS011;11412;50.802;4.350;2023-03-08T07:20:04;4.38;;;4.00;;
22490;SDS011;11412;50.802;4.350;2023-03-08T07:22:31;4.70;;;4.30;;
22490;SDS011;11412;50.802;4.350;2023-03-08T07:24:57;4.68;;;4.28;;
22490;SDS011;11412;50.802;4.350;2023-03-08T07:27:22;4.85;;;4.45;;
22490;SDS011;11412;50.802;4.350;2023-03-08T07:29:48;4.72;;;4.22;;
22490;SDS011;11412;50.802;4.350;2023-03-08T07:32:14;4.50;;;4.20;;
22490;SDS011;11412;50.802;4.350;2023-03-08T07:34:40;4.93;;;4.53;;
22490;SDS011;11412;50.802;4.350;2023-03-08T07:37:10;5.05;;;4.65;;
22490;SDS011;11412;50.802;4.350;2023-03-08T07:42:06;4.18;;;3.88;;
22490;SDS011;11412;50.802;4.350;2023-03-08T07:44:32;4.28;;;3.88;;
22490;SDS011;11412;50.802;4.350;2023-03-08T07:46:58;4.22;;;3.97;;
22490;SDS011;11412;50.802;4.350;2023-03-08T07:49:23;4.55;;;4.25;;
22490;SDS011;11412;50.802;4.350;2023-03-08T07:51:49;4.30;;;3.95;;
22490;SDS011;11412;50.802;4.350;2023-03-08T07:54:17;4.45;;;4.05;;
22490;SDS011;11412;50.802;4.350;2023-03-08T07:56:42;3.72;;;3.33;;
22490;SDS011;11412;50.802;4.350;2023-03-08T07:59:08;3.30;;;3.10;;
22490;SDS011;11412;50.802;4.350;2023-03-08T08:01:34;3.85;;;3.55;;
22490;SDS011;11412;50.802;4.350;2023-03-08T08:03:59;3.38;;;3.17;;
22490;SDS011;11412;50.802;4.350;2023-03-08T08:06:25;3.70;;;3.50;;
22490;SDS011;11412;50.802;4.350;2023-03-08T08:08:51;3.25;;;3.05;;
22490;SDS011;11412;50.802;4.350;2023-03-08T08:11:19;3.55;;;3.35;;
22490;SDS011;11412;50.802;4.350;2023-03-08T08:13:45;2.92;;;2.83;;
22490;SDS011;11412;50.802;4.350;2023-03-08T08:16:14;3.55;;;3.35;;
22490;SDS011;11412;50.802;4.350;2023-03-08T08:18:40;3.80;;;3.50;;
22490;SDS011;11412;50.802;4.350;2023-03-08T08:21:08;3.08;;;2.88;;
22490;SDS011;11412;50.802;4.350;2023-03-08T08:23:35;2.72;;;2.53;;
22490;SDS011;11412;50.802;4.350;2023-03-08T08:26:05;3.10;;;2.90;;
22490;SDS011;11412;50.802;4.350;2023-03-08T08:28:33;3.05;;;2.85;;
22490;SDS011;11412;50.802;4.350;2023-03-08T08:31:13;3.17;;;2.97;;
22490;SDS011;11412;50.802;4.350;2023-03-08T08:33:40;3.17;;;2.97;;
22490;SDS011;11412;50.802;4.350;2023-03-08T08:36:07;3.28;;;3.08;;
22490;SDS011;11412;50.802;4.350;2023-03-08T08:38:35;3.38;;;3.17;;
22490;SDS011;11412;50.802;4.350;2023-03-08T08:41:02;3.30;;;2.35;;
22490;SDS011;11412;50.802;4.350;2023-03-08T08:43:29;3.15;;;2.95;;
22490;SDS011;11412;50.802;4.350;2023-03-08T08:45:56;3.58;;;2.90;;
22490;SDS011;11412;50.802;4.350;2023-03-08T08:48:23;3.28;;;3.08;;
22490;SDS011;11412;50.802;4.350;2023-03-08T08:50:49;2.80;;;2.60;;
22490;SDS011;11412;50.802;4.350;2023-03-08T08:53:16;3.05;;;2.65;;
22490;SDS011;11412;50.802;4.350;2023-03-08T08:55:42;2.90;;;2.70;;
22490;SDS011;11412;50.802;4.350;2023-03-08T08:58:08;2.72;;;2.53;;
22490;SDS011;11412;50.802;4.350;2023-03-08T09:00:34;3.35;;;3.00;;
22490;SDS011;11412;50.802;4.350;2023-03-08T09:03:00;2.47;;;2.38;;
22490;SDS011;11412;50.802;4.350;2023-03-08T09:05:27;2.85;;;2.65;;
22490;SDS011;11412;50.802;4.350;2023-03-08T09:07:53;2.88;;;2.67;;
22490;SDS011;11412;50.802;4.350;2023-03-08T09:10:22;2.65;;;2.45;;
22490;SDS011;11412;50.802;4.350;2023-03-08T09:12:49;2.63;;;2.53;;
22490;SDS011;11412;50.802;4.350;2023-03-08T09:15:15;2.90;;;2.70;;
22490;SDS011;11412;50.802;4.350;2023-03-08T09:17:41;2.80;;;2.60;;
22490;SDS011;11412;50.802;4.350;2023-03-08T09:20:07;2.67;;;2.47;;
22490;SDS011;11412;50.802;4.350;2023-03-08T09:22:37;3.00;;;2.80;;
22490;SDS011;11412;50.802;4.350;2023-03-08T09:25:03;2.65;;;2.45;;
22490;SDS011;11412;50.802;4.350;2023-03-08T09:27:30;2.75;;;2.53;;
22490;SDS011;11412;50.802;4.350;2023-03-08T09:29:56;2.83;;;2.63;;
22490;SDS011;11412;50.802;4.350;2023-03-08T09:32:22;3.53;;;2.90;;
22490;SDS011;11412;50.802;4.350;2023-03-08T09:34:48;3.38;;;3.10;;
22490;SDS011;11412;50.802;4.350;2023-03-08T09:37:14;2.60;;;2.47;;
22490;SDS011;11412;50.802;4.350;2023-03-08T09:39:41;2.95;;;2.75;;
22490;SDS011;11412;50.802;4.350;2023-03-08T09:42:14;2.80;;;2.60;;
22490;SDS011;11412;50.802;4.350;2023-03-08T09:47:40;3.17;;;2.97;;
22490;SDS011;11412;50.802;4.350;2023-03-08T09:50:18;3.60;;;3.30;;
22490;SDS011;11412;50.802;4.350;2023-03-08T09:55:28;3.20;;;3.00;;
22490;SDS011;11412;50.802;4.350;2023-03-08T09:58:02;3.75;;;3.45;;
22490;SDS011;11412;50.802;4.350;2023-03-08T10:00:36;3.22;;;3.03;;
22490;SDS011;11412;50.802;4.350;2023-03-08T10:08:34;2.95;;;2.78;;
22490;SDS011;11412;50.802;4.350;2023-03-08T10:11:09;3.70;;;3.40;;
22490;SDS011;11412;50.802;4.350;2023-03-08T10:13:59;3.55;;;3.25;;
22490;SDS011;11412;50.802;4.350;2023-03-08T10:16:32;3.38;;;3.17;;
22490;SDS011;11412;50.802;4.350;2023-03-08T10:21:39;3.63;;;3.42;;
22490;SDS011;11412;50.802;4.350;2023-03-08T10:24:14;3.60;;;3.10;;
22490;SDS011;11412;50.802;4.350;2023-03-08T10:26:43;3.38;;;3.17;;
22490;SDS011;11412;50.802;4.350;2023-03-08T10:29:12;3.35;;;3.15;;
22490;SDS011;11412;50.802;4.350;2023-03-08T10:31:38;3.50;;;3.20;;
22490;SDS011;11412;50.802;4.350;2023-03-08T10:34:17;3.10;;;2.90;;
22490;SDS011;11412;50.802;4.350;2023-03-08T10:37:06;3.67;;;3.38;;
22490;SDS011;11412;50.802;4.350;2023-03-08T10:39:31;3.58;;;3.33;;
22490;SDS011;11412;50.802;4.350;2023-03-08T10:41:59;3.90;;;3.63;;
22490;SDS011;11412;50.802;4.350;2023-03-08T10:47:00;3.15;;;2.95;;
22490;SDS011;11412;50.802;4.350;2023-03-08T10:49:42;3.38;;;3.17;;
22490;SDS011;11412;50.802;4.350;2023-03-08T10:55:06;3.22;;;3.03;;
22490;SDS011;11412;50.802;4.350;2023-03-08T10:57:36;4.20;;;3.80;;
22490;SDS011;11412;50.802;4.350;2023-03-08T11:00:51;3.70;;;3.50;;
22490;SDS011;11412;50.802;4.350;2023-03-08T11:05:35;4.13;;;3.63;;
22490;SDS011;11412;50.802;4.350;2023-03-08T11:08:01;3.70;;;3.40;;
22490;SDS011;11412;50.802;4.350;2023-03-08T11:10:27;3.70;;;3.45;;
22490;SDS011;11412;50.802;4.350;2023-03-08T11:13:09;4.30;;;3.50;;
22490;SDS011;11412;50.802;4.350;2023-03-08T11:15:44;3.97;;;3.58;;
22490;SDS011;11412;50.802;4.350;2023-03-08T11:18:45;4.70;;;4.30;;
22490;SDS011;11412;50.802;4.350;2023-03-08T11:26:37;4.10;;;3.80;;
22490;SDS011;11412;50.802;4.350;2023-03-08T11:31:55;4.55;;;4.25;;
22490;SDS011;11412;50.802;4.350;2023-03-08T11:40:34;5.40;;;5.00;;
22490;SDS011;11412;50.802;4.350;2023-03-08T11:45:32;5.60;;;5.15;;
22490;SDS011;11412;50.802;4.350;2023-03-08T11:48:09;5.93;;;5.43;;
22490;SDS011;11412;50.802;4.350;2023-03-08T12:04:36;6.47;;;5.85;;
22490;SDS011;11412;50.802;4.350;2023-03-08T12:07:09;7.00;;;6.40;;
22490;SDS011;11412;50.802;4.350;2023-03-08T12:09:51;7.53;;;6.60;;
22490;SDS011;11412;50.802;4.350;2023-03-08T12:12:34;6.50;;;5.88;;
22490;SDS011;11412;50.802;4.350;2023-03-08T12:18:03;6.82;;;6.22;;
22490;SDS011;11412;50.802;4.350;2023-03-08T12:20:37;6.50;;;5.85;;
22490;SDS011;11412;50.802;4.350;2023-03-08T12:25:56;7.03;;;6.43;;
22490;SDS011;11412;50.802;4.350;2023-03-08T12:28:50;7.13;;;6.53;;
22490;SDS011;11412;50.802;4.350;2023-03-08T12:34:10;7.45;;;6.75;;
22490;SDS011;11412;50.802;4.350;2023-03-08T12:36:55;7.97;;;7.18;;
22490;SDS011;11412;50.802;4.350;2023-03-08T12:39:31;7.38;;;6.68;;
22490;SDS011;11412;50.802;4.350;2023-03-08T12:42:12;6.65;;;6.13;;
22490;SDS011;11412;50.802;4.350;2023-03-08T12:44:40;7.30;;;6.63;;
22490;SDS011;11412;50.802;4.350;2023-03-08T12:49:42;7.10;;;6.47;;
22490;SDS011;11412;50.802;4.350;2023-03-08T12:54:42;6.93;;;6.30;;
22490;SDS011;11412;50.802;4.350;2023-03-08T12:57:20;7.07;;;6.47;;
22490;SDS011;11412;50.802;4.350;2023-03-08T12:59:49;7.80;;;7.00;;
22490;SDS011;11412;50.802;4.350;2023-03-08T13:02:40;7.88;;;7.07;;
22490;SDS011;11412;50.802;4.350;2023-03-08T13:18:43;9.38;;;8.38;;
22490;SDS011;11412;50.802;4.350;2023-03-08T13:21:22;9.52;;;8.52;;
22490;SDS011;11412;50.802;4.350;2023-03-08T13:24:15;9.93;;;8.65;;
22490;SDS011;11412;50.802;4.350;2023-03-08T13:29:30;9.85;;;8.80;;
22490;SDS011;11412;50.802;4.350;2023-03-08T13:31:59;9.35;;;8.35;;
22490;SDS011;11412;50.802;4.350;2023-03-08T13:34:39;11.15;;;8.13;;
22490;SDS011;11412;50.802;4.350;2023-03-08T13:37:18;9.93;;;8.63;;
22490;SDS011;11412;50.802;4.350;2023-03-08T13:39:50;8.80;;;7.90;;
22490;SDS011;11412;50.802;4.350;2023-03-08T13:42:19;9.07;;;8.18;;
22490;SDS011;11412;50.802;4.350;2023-03-08T13:44:52;9.27;;;8.35;;
22490;SDS011;11412;50.802;4.350;2023-03-08T13:47:29;8.55;;;7.65;;
22490;SDS011;11412;50.802;4.350;2023-03-08T13:49:59;8.90;;;8.00;;
22490;SDS011;11412;50.802;4.350;2023-03-08T13:52:31;9.57;;;8.57;;
22490;SDS011;11412;50.802;4.350;2023-03-08T13:55:01;9.27;;;8.30;;
22490;SDS011;11412;50.802;4.350;2023-03-08T13:57:30;9.52;;;8.07;;
22490;SDS011;11412;50.802;4.350;2023-03-08T14:00:01;11.20;;;8.88;;
22490;SDS011;11412;50.802;4.350;2023-03-08T14:02:44;9.73;;;8.35;;
22490;SDS011;11412;50.802;4.350;2023-03-08T14:05:17;9.18;;;8.27;;
22490;SDS011;11412;50.802;4.350;2023-03-08T14:08:03;9.02;;;8.10;;
22490;SDS011;11412;50.802;4.350;2023-03-08T14:10:35;11.15;;;9.95;;
22490;SDS011;11412;50.802;4.350;2023-03-08T14:13:01;11.05;;;9.95;;
22490;SDS011;11412;50.802;4.350;2023-03-08T14:15:29;11.10;;;9.80;;
22490;SDS011;11412;50.802;4.350;2023-03-08T14:17:57;12.73;;;9.77;;
22490;SDS011;11412;50.802;4.350;2023-03-08T14:20:23;10.85;;;9.40;;
22490;SDS011;11412;50.802;4.350;2023-03-08T14:22:50;11.35;;;9.15;;
22490;SDS011;11412;50.802;4.350;2023-03-08T14:25:23;12.40;;;9.95;;
22490;SDS011;11412;50.802;4.350;2023-03-08T14:27:50;10.90;;;9.77;;
22490;SDS011;11412;50.802;4.350;2023-03-08T14:33:17;12.18;;;10.52;;
22490;SDS011;11412;50.802;4.350;2023-03-08T14:35:51;14.23;;;10.30;;
22490;SDS011;11412;50.802;4.350;2023-03-08T14:38:26;11.63;;;10.43;;
22490;SDS011;11412;50.802;4.350;2023-03-08T14:40:52;12.52;;;10.85;;
22490;SDS011;11412;50.802;4.350;2023-03-08T14:43:22;13.05;;;10.73;;
22490;SDS011;11412;50.802;4.350;2023-03-08T14:46:03;12.23;;;10.93;;
22490;SDS011;11412;50.802;4.350;2023-03-08T14:48:31;11.88;;;10.43;;
22490;SDS011;11412;50.802;4.350;2023-03-08T14:56:04;11.60;;;10.02;;
22490;SDS011;11412;50.802;4.350;2023-03-08T14:58:32;11.60;;;10.27;;
22490;SDS011;11412;50.802;4.350;2023-03-08T15:01:01;13.05;;;10.02;;
22490;SDS011;11412;50.802;4.350;2023-03-08T15:03:27;11.65;;;10.15;;
22490;SDS011;11412;50.802;4.350;2023-03-08T15:05:55;11.98;;;10.68;;
22490;SDS011;11412;50.802;4.350;2023-03-08T15:08:22;12.52;;;9.73;;
22490;SDS011;11412;50.802;4.350;2023-03-08T15:10:48;11.43;;;9.93;;
22490;SDS011;11412;50.802;4.350;2023-03-08T15:13:18;12.02;;;9.30;;
22490;SDS011;11412;50.802;4.350;2023-03-08T15:15:48;9.38;;;8.35;;
22490;SDS011;11412;50.802;4.350;2023-03-08T15:18:14;10.65;;;9.55;;
22490;SDS011;11412;50.802;4.350;2023-03-08T15:20:41;10.65;;;9.57;;
22490;SDS011;11412;50.802;4.350;2023-03-08T15:23:15;13.13;;;9.88;;
22490;SDS011;11412;50.802;4.350;2023-03-08T15:25:46;10.02;;;8.98;;
22490;SDS011;11412;50.802;4.350;2023-03-08T15:28:14;9.70;;;8.70;;
22490;SDS011;11412;50.802;4.350;2023-03-08T15:30:41;10.00;;;8.95;;
22490;SDS011;11412;50.802;4.350;2023-03-08T15:33:07;10.93;;;8.52;;
22490;SDS011;11412;50.802;4.350;2023-03-08T15:35:34;10.88;;;9.63;;
22490;SDS011;11412;50.802;4.350;2023-03-08T15:38:00;10.85;;;8.55;;
22490;SDS011;11412;50.802;4.350;2023-03-08T15:40:26;11.27;;;9.02;;
22490;SDS011;11412;50.802;4.350;2023-03-08T15:42:54;13.00;;;9.50;;
22490;SDS011;11412;50.802;4.350;2023-03-08T15:45:19;11.00;;;9.77;;
22490;SDS011;11412;50.802;4.350;2023-03-08T15:47:58;10.20;;;8.68;;
22490;SDS011;11412;50.802;4.350;2023-03-08T15:50:29;10.00;;;8.98;;
22490;SDS011;11412;50.802;4.350;2023-03-08T15:52:56;10.30;;;8.80;;
22490;SDS011;11412;50.802;4.350;2023-03-08T15:55:23;10.30;;;8.95;;
22490;SDS011;11412;50.802;4.350;2023-03-08T15:57:50;9.95;;;8.75;;
22490;SDS011;11412;50.802;4.350;2023-03-08T16:00:16;9.90;;;8.90;;
22490;SDS011;11412;50.802;4.350;2023-03-08T16:02:44;10.18;;;8.77;;
22490;SDS011;11412;50.802;4.350;2023-03-08T16:05:10;10.10;;;8.77;;
22490;SDS011;11412;50.802;4.350;2023-03-08T16:07:37;11.07;;;9.18;;
22490;SDS011;11412;50.802;4.350;2023-03-08T16:10:03;11.32;;;9.07;;
22490;SDS011;11412;50.802;4.350;2023-03-08T16:12:30;11.07;;;8.88;;
22490;SDS011;11412;50.802;4.350;2023-03-08T16:14:55;10.68;;;9.15;;
22490;SDS011;11412;50.802;4.350;2023-03-08T16:17:22;9.88;;;8.77;;
22490;SDS011;11412;50.802;4.350;2023-03-08T16:19:52;11.15;;;9.32;;
22490;SDS011;11412;50.802;4.350;2023-03-08T16:22:17;12.27;;;9.65;;
22490;SDS011;11412;50.802;4.350;2023-03-08T16:24:44;10.90;;;8.73;;